sensor_id;sensor_type;location;lat;lon;timestamp;temperature;humidity
15288;DHT22;7745;48.708;9.026;2022-11-30T00:02:22;5.80;99.90
15288;DHT22;7745;48.708;9.026;2022-11-30T00:12:09;5.90;99.90
15288;DHT22;7745;48.708;9.026;2022-11-30T00:14:59;5.90;99.90
15288;DHT22;7745;48.708;9.026;2022-11-30T00:18:06;5.90;99.90
15288;DHT22;7745;48.708;9.026;2022-11-30T00:26:52;5.90;99.90
15288;DHT22;7745;48.708;9.026;2022-11-30T00:33:15;5.90;99.90
15288;DHT22;7745;48.708;9.026;2022-11-30T00:39:49;5.80;99.90
15288;DHT22;7745;48.708;9.026;2022-11-30T00:42:58;6.10;99.90
15288;DHT22;7745;48.708;9.026;2022-11-30T00:45:59;6.20;99.90
15288;DHT22;7745;48.708;9.026;2022-11-30T00:49:08;5.70;99.90
15288;DHT22;7745;48.708;9.026;2022-11-30T00:52:02;6.20;99.90
15288;DHT22;7745;48.708;9.026;2022-11-30T01:00:55;5.80;99.90
15288;DHT22;7745;48.708;9.026;2022-11-30T01:03:50;5.80;99.90
15288;DHT22;7745;48.708;9.026;2022-11-30T01:09:32;5.70;99.90
15288;DHT22;7745;48.708;9.026;2022-11-30T01:11:10;5.80;99.90
15288;DHT22;7745;48.708;9.026;2022-11-30T01:20:14;5.80;99.90
15288;DHT22;7745;48.708;9.026;2022-11-30T01:23:12;6.00;99.90
15288;DHT22;7745;48.708;9.026;2022-11-30T01:26:14;5.90;99.90
15288;DHT22;7745;48.708;9.026;2022-11-30T01:29:05;5.90;99.90
15288;DHT22;7745;48.708;9.026;2022-11-30T01:32:06;5.90;99.90
15288;DHT22;7745;48.708;9.026;2022-11-30T01:34:51;5.90;99.90
15288;DHT22;7745;48.708;9.026;2022-11-30T01:38:14;5.90;99.90
15288;DHT22;7745;48.708;9.026;2022-11-30T01:48:02;5.60;99.90
15288;DHT22;7745;48.708;9.026;2022-11-30T01:50:51;6.40;99.90
15288;DHT22;7745;48.708;9.026;2022-11-30T01:53:43;5.80;99.90
15288;DHT22;7745;48.708;9.026;2022-11-30T01:56:56;5.80;99.90
15288;DHT22;7745;48.708;9.026;2022-11-30T02:03:20;6.30;99.90
15288;DHT22;7745;48.708;9.026;2022-11-30T02:06:27;5.70;99.90
15288;DHT22;7745;48.708;9.026;2022-11-30T02:17:00;5.70;99.90
15288;DHT22;7745;48.708;9.026;2022-11-30T02:20:23;5.70;99.90
15288;DHT22;7745;48.708;9.026;2022-11-30T02:26:53;5.70;99.90
15288;DHT22;7745;48.708;9.026;2022-11-30T02:37:04;5.80;99.90
15288;DHT22;7745;48.708;9.026;2022-11-30T02:40:07;5.60;99.90
15288;DHT22;7745;48.708;9.026;2022-11-30T02:42:52;5.70;99.90
15288;DHT22;7745;48.708;9.026;2022-11-30T02:45:37;5.90;99.90
15288;DHT22;7745;48.708;9.026;2022-11-30T02:48:57;5.70;99.90
15288;DHT22;7745;48.708;9.026;2022-11-30T02:51:57;5.80;99.90
15288;DHT22;7745;48.708;9.026;2022-11-30T02:54:56;5.80;99.90
15288;DHT22;7745;48.708;9.026;2022-11-30T02:58:15;5.70;99.90
15288;DHT22;7745;48.708;9.026;2022-11-30T03:01:30;5.70;99.90
15288;DHT22;7745;48.708;9.026;2022-11-30T03:04:45;5.70;99.90
15288;DHT22;7745;48.708;9.026;2022-11-30T03:21:31;5.50;99.90
15288;DHT22;7745;48.708;9.026;2022-11-30T03:27:36;5.90;99.90
15288;DHT22;7745;48.708;9.026;2022-11-30T03:30:19;5.90;99.90
15288;DHT22;7745;48.708;9.026;2022-11-30T03:33:56;5.90;99.90
15288;DHT22;7745;48.708;9.026;2022-11-30T03:36:56;5.80;99.90
15288;DHT22;7745;48.708;9.026;2022-11-30T03:43:11;5.50;99.90
15288;DHT22;7745;48.708;9.026;2022-11-30T03:49:29;5.60;99.90
15288;DHT22;7745;48.708;9.026;2022-11-30T03:52:30;5.80;99.90
15288;DHT22;7745;48.708;9.026;2022-11-30T03:58:26;5.70;99.90
15288;DHT22;7745;48.708;9.026;2022-11-30T04:01:37;5.60;99.90
15288;DHT22;7745;48.708;9.026;2022-11-30T04:08:02;5.80;99.90
15288;DHT22;7745;48.708;9.026;2022-11-30T04:10:55;5.70;99.90
15288;DHT22;7745;48.708;9.026;2022-11-30T04:13:59;5.70;99.90
15288;DHT22;7745;48.708;9.026;2022-11-30T04:16:43;5.70;99.90
15288;DHT22;7745;48.708;9.026;2022-11-30T04:19:46;5.70;99.90
15288;DHT22;7745;48.708;9.026;2022-11-30T04:26:17;5.70;99.90
15288;DHT22;7745;48.708;9.026;2022-11-30T04:29:13;5.70;99.90
15288;DHT22;7745;48.708;9.026;2022-11-30T04:32:00;5.70;99.90
15288;DHT22;7745;48.708;9.026;2022-11-30T04:34:54;5.70;99.90
15288;DHT22;7745;48.708;9.026;2022-11-30T04:38:06;5.80;99.90
15288;DHT22;7745;48.708;9.026;2022-11-30T04:41:14;5.60;99.90
15288;DHT22;7745;48.708;9.026;2022-11-30T04:44:32;5.70;99.90
15288;DHT22;7745;48.708;9.026;2022-11-30T04:47:28;5.70;99.90
15288;DHT22;7745;48.708;9.026;2022-11-30T04:50:36;5.80;99.90
15288;DHT22;7745;48.708;9.026;2022-11-30T04:53:21;5.60;99.90
15288;DHT22;7745;48.708;9.026;2022-11-30T04:56:05;5.70;99.90
15288;DHT22;7745;48.708;9.026;2022-11-30T04:58:48;6.00;99.90
15288;DHT22;7745;48.708;9.026;2022-11-30T05:01:34;5.70;99.90
15288;DHT22;7745;48.708;9.026;2022-11-30T05:04:37;5.80;99.90
15288;DHT22;7745;48.708;9.026;2022-11-30T05:14:17;5.60;99.90
15288;DHT22;7745;48.708;9.026;2022-11-30T05:20:44;5.60;99.90
15288;DHT22;7745;48.708;9.026;2022-11-30T05:23:31;5.90;99.90
15288;DHT22;7745;48.708;9.026;2022-11-30T05:26:20;5.80;99.90
15288;DHT22;7745;48.708;9.026;2022-11-30T05:29:07;5.60;99.90
15288;DHT22;7745;48.708;9.026;2022-11-30T05:31:48;5.60;99.90
15288;DHT22;7745;48.708;9.026;2022-11-30T05:34:23;5.60;99.90
15288;DHT22;7745;48.708;9.026;2022-11-30T05:36:58;5.90;99.90
15288;DHT22;7745;48.708;9.026;2022-11-30T05:39:39;5.70;99.90
15288;DHT22;7745;48.708;9.026;2022-11-30T05:42:10;5.60;99.90
15288;DHT22;7745;48.708;9.026;2022-11-30T05:44:40;5.70;99.90
15288;DHT22;7745;48.708;9.026;2022-11-30T05:47:18;5.90;99.90
15288;DHT22;7745;48.708;9.026;2022-11-30T05:50:03;5.90;99.90
15288;DHT22;7745;48.708;9.026;2022-11-30T05:52:48;5.60;99.90
15288;DHT22;7745;48.708;9.026;2022-11-30T05:55:27;5.60;99.90
15288;DHT22;7745;48.708;9.026;2022-11-30T05:58:04;5.60;99.90
15288;DHT22;7745;48.708;9.026;2022-11-30T06:00:37;5.60;99.90
15288;DHT22;7745;48.708;9.026;2022-11-30T06:03:12;5.80;99.90
15288;DHT22;7745;48.708;9.026;2022-11-30T06:05:51;5.80;99.90
15288;DHT22;7745;48.708;9.026;2022-11-30T06:08:33;5.70;99.90
15288;DHT22;7745;48.708;9.026;2022-11-30T06:11:26;6.00;99.90
15288;DHT22;7745;48.708;9.026;2022-11-30T06:14:24;5.70;99.90
15288;DHT22;7745;48.708;9.026;2022-11-30T06:17:01;5.70;99.90
15288;DHT22;7745;48.708;9.026;2022-11-30T06:19:37;5.70;99.90
15288;DHT22;7745;48.708;9.026;2022-11-30T06:22:15;5.70;99.90
15288;DHT22;7745;48.708;9.026;2022-11-30T06:24:59;5.70;99.90
15288;DHT22;7745;48.708;9.026;2022-11-30T06:27:31;5.70;99.90
15288;DHT22;7745;48.708;9.026;2022-11-30T06:30:02;5.60;99.90
15288;DHT22;7745;48.708;9.026;2022-11-30T06:32:36;5.70;99.90
15288;DHT22;7745;48.708;9.026;2022-11-30T06:35:16;5.60;99.90
15288;DHT22;7745;48.708;9.026;2022-11-30T06:37:43;5.60;99.90
15288;DHT22;7745;48.708;9.026;2022-11-30T06:40:13;6.00;99.90
15288;DHT22;7745;48.708;9.026;2022-11-30T06:42:40;5.60;99.90
15288;DHT22;7745;48.708;9.026;2022-11-30T06:45:14;5.60;99.90
15288;DHT22;7745;48.708;9.026;2022-11-30T06:47:41;5.60;99.90
15288;DHT22;7745;48.708;9.026;2022-11-30T06:50:11;5.70;99.90
15288;DHT22;7745;48.708;9.026;2022-11-30T06:52:40;5.70;99.90
15288;DHT22;7745;48.708;9.026;2022-11-30T06:55:12;5.70;99.90
15288;DHT22;7745;48.708;9.026;2022-11-30T06:57:39;5.70;99.90
15288;DHT22;7745;48.708;9.026;2022-11-30T07:00:07;5.70;99.90
15288;DHT22;7745;48.708;9.026;2022-11-30T07:02:34;5.70;99.90
15288;DHT22;7745;48.708;9.026;2022-11-30T07:05:01;5.70;99.90
15288;DHT22;7745;48.708;9.026;2022-11-30T07:07:29;5.70;99.90
15288;DHT22;7745;48.708;9.026;2022-11-30T07:09:56;5.70;99.90
15288;DHT22;7745;48.708;9.026;2022-11-30T07:12:24;5.70;99.90
15288;DHT22;7745;48.708;9.026;2022-11-30T07:14:51;5.70;99.90
15288;DHT22;7745;48.708;9.026;2022-11-30T07:17:21;5.70;99.90
15288;DHT22;7745;48.708;9.026;2022-11-30T07:19:48;5.80;99.90
15288;DHT22;7745;48.708;9.026;2022-11-30T07:22:15;5.70;99.90
15288;DHT22;7745;48.708;9.026;2022-11-30T07:24:41;5.70;99.90
15288;DHT22;7745;48.708;9.026;2022-11-30T07:27:27;6.10;99.90
15288;DHT22;7745;48.708;9.026;2022-11-30T07:29:54;5.80;99.90
15288;DHT22;7745;48.708;9.026;2022-11-30T07:32:24;5.70;99.90
15288;DHT22;7745;48.708;9.026;2022-11-30T07:34:59;5.80;99.90
15288;DHT22;7745;48.708;9.026;2022-11-30T07:37:28;5.80;99.90
15288;DHT22;7745;48.708;9.026;2022-11-30T07:39:55;5.80;99.90
15288;DHT22;7745;48.708;9.026;2022-11-30T07:42:25;5.80;99.90
15288;DHT22;7745;48.708;9.026;2022-11-30T07:44:55;5.70;99.90
15288;DHT22;7745;48.708;9.026;2022-11-30T07:47:25;5.80;99.90
15288;DHT22;7745;48.708;9.026;2022-11-30T07:49:53;5.90;99.90
15288;DHT22;7745;48.708;9.026;2022-11-30T07:52:26;6.00;99.90
15288;DHT22;7745;48.708;9.026;2022-11-30T07:54:56;5.80;99.90
15288;DHT22;7745;48.708;9.026;2022-11-30T07:57:22;5.90;99.90
15288;DHT22;7745;48.708;9.026;2022-11-30T07:59:49;5.90;99.90
15288;DHT22;7745;48.708;9.026;2022-11-30T08:02:18;5.90;99.90
15288;DHT22;7745;48.708;9.026;2022-11-30T08:04:44;6.00;99.90
15288;DHT22;7745;48.708;9.026;2022-11-30T08:07:11;6.20;99.90
15288;DHT22;7745;48.708;9.026;2022-11-30T08:09:39;6.00;99.90
15288;DHT22;7745;48.708;9.026;2022-11-30T08:12:06;6.00;99.90
15288;DHT22;7745;48.708;9.026;2022-11-30T08:14:33;6.00;99.90
15288;DHT22;7745;48.708;9.026;2022-11-30T08:17:00;6.00;99.90
15288;DHT22;7745;48.708;9.026;2022-11-30T08:19:28;6.00;99.90
15288;DHT22;7745;48.708;9.026;2022-11-30T08:21:55;6.00;99.90
15288;DHT22;7745;48.708;9.026;2022-11-30T08:24:22;6.00;99.90
15288;DHT22;7745;48.708;9.026;2022-11-30T08:26:50;6.00;99.90
15288;DHT22;7745;48.708;9.026;2022-11-30T08:29:17;6.00;99.90
15288;DHT22;7745;48.708;9.026;2022-11-30T08:31:51;6.00;99.90
15288;DHT22;7745;48.708;9.026;2022-11-30T08:34:19;5.90;99.90
15288;DHT22;7745;48.708;9.026;2022-11-30T08:36:47;6.30;99.90
15288;DHT22;7745;48.708;9.026;2022-11-30T08:39:16;6.10;99.90
15288;DHT22;7745;48.708;9.026;2022-11-30T08:41:43;6.00;99.90
15288;DHT22;7745;48.708;9.026;2022-11-30T08:44:12;6.00;99.90
15288;DHT22;7745;48.708;9.026;2022-11-30T08:46:41;6.40;99.90
15288;DHT22;7745;48.708;9.026;2022-11-30T08:49:18;6.00;99.90
15288;DHT22;7745;48.708;9.026;2022-11-30T08:52:01;5.50;99.90
15288;DHT22;7745;48.708;9.026;2022-11-30T08:54:42;6.30;99.90
15288;DHT22;7745;48.708;9.026;2022-11-30T08:57:21;6.20;99.90
15288;DHT22;7745;48.708;9.026;2022-11-30T09:00:04;6.40;99.90
15288;DHT22;7745;48.708;9.026;2022-11-30T09:02:37;6.30;99.90
15288;DHT22;7745;48.708;9.026;2022-11-30T09:05:12;6.30;99.90
15288;DHT22;7745;48.708;9.026;2022-11-30T09:07:57;6.40;99.90
15288;DHT22;7745;48.708;9.026;2022-11-30T09:10:29;6.70;99.90
15288;DHT22;7745;48.708;9.026;2022-11-30T09:13:05;6.50;99.90
15288;DHT22;7745;48.708;9.026;2022-11-30T09:15:42;6.50;99.90
15288;DHT22;7745;48.708;9.026;2022-11-30T09:18:19;6.50;99.90
15288;DHT22;7745;48.708;9.026;2022-11-30T09:21:05;6.80;99.90
15288;DHT22;7745;48.708;9.026;2022-11-30T09:24:03;6.60;99.90
15288;DHT22;7745;48.708;9.026;2022-11-30T09:26:47;6.40;99.90
15288;DHT22;7745;48.708;9.026;2022-11-30T09:29:22;6.50;99.90
15288;DHT22;7745;48.708;9.026;2022-11-30T09:32:08;6.50;99.90
15288;DHT22;7745;48.708;9.026;2022-11-30T09:34:58;6.50;99.90
15288;DHT22;7745;48.708;9.026;2022-11-30T09:37:39;6.50;99.90
15288;DHT22;7745;48.708;9.026;2022-11-30T09:40:26;6.60;99.90
15288;DHT22;7745;48.708;9.026;2022-11-30T09:43:04;6.60;99.90
15288;DHT22;7745;48.708;9.026;2022-11-30T09:45:55;6.60;99.90
15288;DHT22;7745;48.708;9.026;2022-11-30T09:48:38;6.90;99.90
15288;DHT22;7745;48.708;9.026;2022-11-30T09:51:24;6.70;99.90
15288;DHT22;7745;48.708;9.026;2022-11-30T09:54:13;6.70;99.90
15288;DHT22;7745;48.708;9.026;2022-11-30T09:56:43;7.10;99.90
15288;DHT22;7745;48.708;9.026;2022-11-30T09:59:17;7.00;99.90
15288;DHT22;7745;48.708;9.026;2022-11-30T10:01:44;6.80;99.90
15288;DHT22;7745;48.708;9.026;2022-11-30T10:04:19;7.10;99.90
15288;DHT22;7745;48.708;9.026;2022-11-30T10:07:01;6.90;99.90
15288;DHT22;7745;48.708;9.026;2022-11-30T10:09:44;6.80;99.90
15288;DHT22;7745;48.708;9.026;2022-11-30T10:12:20;6.80;99.90
15288;DHT22;7745;48.708;9.026;2022-11-30T10:15:02;7.20;99.90
15288;DHT22;7745;48.708;9.026;2022-11-30T10:17:38;7.40;99.90
15288;DHT22;7745;48.708;9.026;2022-11-30T10:20:18;7.00;99.90
15288;DHT22;7745;48.708;9.026;2022-11-30T10:23:02;7.20;99.90
15288;DHT22;7745;48.708;9.026;2022-11-30T10:25:42;7.00;99.90
15288;DHT22;7745;48.708;9.026;2022-11-30T10:28:17;7.00;99.90
15288;DHT22;7745;48.708;9.026;2022-11-30T10:30:49;7.30;99.90
15288;DHT22;7745;48.708;9.026;2022-11-30T10:33:26;6.90;99.90
15288;DHT22;7745;48.708;9.026;2022-11-30T10:35:56;6.90;99.90
15288;DHT22;7745;48.708;9.026;2022-11-30T10:38:28;6.80;99.90
15288;DHT22;7745;48.708;9.026;2022-11-30T10:41:00;6.90;99.90
15288;DHT22;7745;48.708;9.026;2022-11-30T10:43:34;7.20;99.90
15288;DHT22;7745;48.708;9.026;2022-11-30T10:46:02;7.00;99.90
15288;DHT22;7745;48.708;9.026;2022-11-30T10:48:35;7.10;99.90
15288;DHT22;7745;48.708;9.026;2022-11-30T10:51:04;7.10;99.90
15288;DHT22;7745;48.708;9.026;2022-11-30T10:53:31;7.10;99.90
15288;DHT22;7745;48.708;9.026;2022-11-30T10:56:01;7.10;99.90
15288;DHT22;7745;48.708;9.026;2022-11-30T10:58:35;7.40;99.90
15288;DHT22;7745;48.708;9.026;2022-11-30T11:01:05;7.10;99.90
15288;DHT22;7745;48.708;9.026;2022-11-30T11:03:33;7.10;99.90
15288;DHT22;7745;48.708;9.026;2022-11-30T11:06:11;7.10;99.90
15288;DHT22;7745;48.708;9.026;2022-11-30T11:08:40;6.80;99.90
15288;DHT22;7745;48.708;9.026;2022-11-30T11:11:26;6.80;99.90
15288;DHT22;7745;48.708;9.026;2022-11-30T11:14:16;6.80;99.90
15288;DHT22;7745;48.708;9.026;2022-11-30T11:16:55;6.80;99.90
15288;DHT22;7745;48.708;9.026;2022-11-30T11:19:31;6.70;99.90
15288;DHT22;7745;48.708;9.026;2022-11-30T11:22:00;6.80;99.90
15288;DHT22;7745;48.708;9.026;2022-11-30T11:24:28;6.90;99.90
15288;DHT22;7745;48.708;9.026;2022-11-30T11:26:55;6.70;99.90
15288;DHT22;7745;48.708;9.026;2022-11-30T11:29:26;6.70;99.90
15288;DHT22;7745;48.708;9.026;2022-11-30T11:32:18;6.70;99.90
15288;DHT22;7745;48.708;9.026;2022-11-30T11:34:45;7.00;99.90
15288;DHT22;7745;48.708;9.026;2022-11-30T11:37:18;6.70;99.90
15288;DHT22;7745;48.708;9.026;2022-11-30T11:39:56;6.80;99.90
15288;DHT22;7745;48.708;9.026;2022-11-30T11:42:25;6.80;99.90
15288;DHT22;7745;48.708;9.026;2022-11-30T11:44:55;6.80;99.90
15288;DHT22;7745;48.708;9.026;2022-11-30T11:47:25;6.70;99.90
15288;DHT22;7745;48.708;9.026;2022-11-30T11:50:17;6.80;99.90
15288;DHT22;7745;48.708;9.026;2022-11-30T11:52:47;6.70;99.90
15288;DHT22;7745;48.708;9.026;2022-11-30T11:55:17;6.70;99.90
15288;DHT22;7745;48.708;9.026;2022-11-30T11:57:48;6.80;99.90
15288;DHT22;7745;48.708;9.026;2022-11-30T12:00:18;6.80;99.90
15288;DHT22;7745;48.708;9.026;2022-11-30T12:02:51;6.80;99.90
15288;DHT22;7745;48.708;9.026;2022-11-30T12:05:25;6.90;99.90
15288;DHT22;7745;48.708;9.026;2022-11-30T12:08:01;6.80;99.90
15288;DHT22;7745;48.708;9.026;2022-11-30T12:10:33;7.10;99.90
15288;DHT22;7745;48.708;9.026;2022-11-30T12:13:01;7.20;99.90
15288;DHT22;7745;48.708;9.026;2022-11-30T12:15:44;6.80;99.90
15288;DHT22;7745;48.708;9.026;2022-11-30T12:18:18;6.90;99.90
15288;DHT22;7745;48.708;9.026;2022-11-30T12:20:53;6.80;99.90
15288;DHT22;7745;48.708;9.026;2022-11-30T12:23:51;6.90;99.90
15288;DHT22;7745;48.708;9.026;2022-11-30T12:26:27;6.90;99.90
15288;DHT22;7745;48.708;9.026;2022-11-30T12:29:12;6.80;99.90
15288;DHT22;7745;48.708;9.026;2022-11-30T12:31:55;6.80;99.90
15288;DHT22;7745;48.708;9.026;2022-11-30T12:34:33;6.80;99.90
15288;DHT22;7745;48.708;9.026;2022-11-30T12:37:10;7.40;99.90
15288;DHT22;7745;48.708;9.026;2022-11-30T12:39:45;7.20;99.90
15288;DHT22;7745;48.708;9.026;2022-11-30T12:42:16;7.30;99.90
15288;DHT22;7745;48.708;9.026;2022-11-30T12:44:52;7.30;99.90
15288;DHT22;7745;48.708;9.026;2022-11-30T12:47:38;7.20;99.90
15288;DHT22;7745;48.708;9.026;2022-11-30T12:50:26;7.30;99.90
15288;DHT22;7745;48.708;9.026;2022-11-30T12:53:03;6.90;99.90
15288;DHT22;7745;48.708;9.026;2022-11-30T12:55:38;7.20;99.90
15288;DHT22;7745;48.708;9.026;2022-11-30T12:58:14;6.90;99.90
15288;DHT22;7745;48.708;9.026;2022-11-30T13:00:51;7.00;99.90
15288;DHT22;7745;48.708;9.026;2022-11-30T13:03:42;7.40;99.90
15288;DHT22;7745;48.708;9.026;2022-11-30T13:06:14;6.80;99.90
15288;DHT22;7745;48.708;9.026;2022-11-30T13:08:58;7.10;99.90
15288;DHT22;7745;48.708;9.026;2022-11-30T13:15:12;7.20;99.90
15288;DHT22;7745;48.708;9.026;2022-11-30T13:22:18;6.70;99.90
15288;DHT22;7745;48.708;9.026;2022-11-30T13:28:39;6.60;99.90
15288;DHT22;7745;48.708;9.026;2022-11-30T13:31:42;6.50;99.90
15288;DHT22;7745;48.708;9.026;2022-11-30T13:34:39;6.50;99.90
15288;DHT22;7745;48.708;9.026;2022-11-30T13:41:23;6.30;99.90
15288;DHT22;7745;48.708;9.026;2022-11-30T13:44:15;6.70;99.90
15288;DHT22;7745;48.708;9.026;2022-11-30T13:46:48;6.40;99.90
15288;DHT22;7745;48.708;9.026;2022-11-30T13:49:19;6.40;99.90
15288;DHT22;7745;48.708;9.026;2022-11-30T13:51:46;6.30;99.90
15288;DHT22;7745;48.708;9.026;2022-11-30T13:54:36;6.40;99.90
15288;DHT22;7745;48.708;9.026;2022-11-30T13:57:15;6.40;99.90
15288;DHT22;7745;48.708;9.026;2022-11-30T13:59:47;6.30;99.90
15288;DHT22;7745;48.708;9.026;2022-11-30T14:05:35;6.20;99.90
15288;DHT22;7745;48.708;9.026;2022-11-30T14:08:32;6.20;99.90
15288;DHT22;7745;48.708;9.026;2022-11-30T14:14:44;6.20;99.90
15288;DHT22;7745;48.708;9.026;2022-11-30T14:17:14;6.20;99.90
15288;DHT22;7745;48.708;9.026;2022-11-30T14:19:43;6.10;99.90
15288;DHT22;7745;48.708;9.026;2022-11-30T14:22:11;6.10;99.90
15288;DHT22;7745;48.708;9.026;2022-11-30T14:24:40;6.30;99.90
15288;DHT22;7745;48.708;9.026;2022-11-30T14:27:14;6.40;99.90
15288;DHT22;7745;48.708;9.026;2022-11-30T14:29:43;6.20;99.90
15288;DHT22;7745;48.708;9.026;2022-11-30T14:32:23;6.20;99.90
15288;DHT22;7745;48.708;9.026;2022-11-30T14:34:54;6.20;99.90
15288;DHT22;7745;48.708;9.026;2022-11-30T14:37:29;6.20;99.90
15288;DHT22;7745;48.708;9.026;2022-11-30T14:40:02;6.40;99.90
15288;DHT22;7745;48.708;9.026;2022-11-30T14:42:33;6.20;99.90
15288;DHT22;7745;48.708;9.026;2022-11-30T14:45:12;6.20;99.90
15288;DHT22;7745;48.708;9.026;2022-11-30T14:47:45;6.10;99.90
15288;DHT22;7745;48.708;9.026;2022-11-30T14:50:21;6.30;99.90
15288;DHT22;7745;48.708;9.026;2022-11-30T14:53:06;6.50;99.90
15288;DHT22;7745;48.708;9.026;2022-11-30T14:55:38;6.00;99.90
15288;DHT22;7745;48.708;9.026;2022-11-30T14:58:16;6.10;99.90
15288;DHT22;7745;48.708;9.026;2022-11-30T15:00:47;6.10;99.90
15288;DHT22;7745;48.708;9.026;2022-11-30T15:03:22;6.50;99.90
15288;DHT22;7745;48.708;9.026;2022-11-30T15:05:56;6.00;99.90
15288;DHT22;7745;48.708;9.026;2022-11-30T15:08:35;6.40;99.90
15288;DHT22;7745;48.708;9.026;2022-11-30T15:11:15;6.00;99.90
15288;DHT22;7745;48.708;9.026;2022-11-30T15:14:23;6.30;99.90
15288;DHT22;7745;48.708;9.026;2022-11-30T15:16:53;6.10;99.90
15288;DHT22;7745;48.708;9.026;2022-11-30T15:19:26;6.10;99.90
15288;DHT22;7745;48.708;9.026;2022-11-30T15:21:55;6.10;99.90
15288;DHT22;7745;48.708;9.026;2022-11-30T15:24:23;6.00;99.90
15288;DHT22;7745;48.708;9.026;2022-11-30T15:26:54;6.10;99.90
15288;DHT22;7745;48.708;9.026;2022-11-30T15:29:28;6.20;99.90
15288;DHT22;7745;48.708;9.026;2022-11-30T15:31:59;6.00;99.90
15288;DHT22;7745;48.708;9.026;2022-11-30T15:34:33;6.30;99.90
15288;DHT22;7745;48.708;9.026;2022-11-30T15:37:04;6.20;99.90
15288;DHT22;7745;48.708;9.026;2022-11-30T15:39:33;6.10;99.90
15288;DHT22;7745;48.708;9.026;2022-11-30T15:42:13;5.90;99.90
15288;DHT22;7745;48.708;9.026;2022-11-30T15:44:44;5.90;99.90
15288;DHT22;7745;48.708;9.026;2022-11-30T15:47:26;5.90;99.90
15288;DHT22;7745;48.708;9.026;2022-11-30T15:49:59;6.00;99.90
15288;DHT22;7745;48.708;9.026;2022-11-30T15:52:29;5.90;99.90
15288;DHT22;7745;48.708;9.026;2022-11-30T15:54:57;5.90;99.90
15288;DHT22;7745;48.708;9.026;2022-11-30T15:57:58;6.00;99.90
15288;DHT22;7745;48.708;9.026;2022-11-30T16:00:34;5.90;99.90
15288;DHT22;7745;48.708;9.026;2022-11-30T16:03:10;5.90;99.90
15288;DHT22;7745;48.708;9.026;2022-11-30T16:05:38;5.90;99.90
15288;DHT22;7745;48.708;9.026;2022-11-30T16:08:15;6.00;99.90
15288;DHT22;7745;48.708;9.026;2022-11-30T16:10:57;6.10;99.90
15288;DHT22;7745;48.708;9.026;2022-11-30T16:13:38;5.80;99.90
15288;DHT22;7745;48.708;9.026;2022-11-30T16:16:23;5.80;99.90
15288;DHT22;7745;48.708;9.026;2022-11-30T16:19:10;5.80;99.90
15288;DHT22;7745;48.708;9.026;2022-11-30T16:21:51;6.20;99.90
15288;DHT22;7745;48.708;9.026;2022-11-30T16:24:49;6.10;99.90
15288;DHT22;7745;48.708;9.026;2022-11-30T16:27:42;5.80;99.90
15288;DHT22;7745;48.708;9.026;2022-11-30T16:30:28;5.60;99.90
15288;DHT22;7745;48.708;9.026;2022-11-30T16:33:22;5.80;99.90
15288;DHT22;7745;48.708;9.026;2022-11-30T16:35:59;6.00;99.90
15288;DHT22;7745;48.708;9.026;2022-11-30T16:38:39;5.80;99.90
15288;DHT22;7745;48.708;9.026;2022-11-30T16:41:16;5.90;99.90
15288;DHT22;7745;48.708;9.026;2022-11-30T16:47:37;5.80;99.90
15288;DHT22;7745;48.708;9.026;2022-11-30T16:50:15;5.80;99.90
15288;DHT22;7745;48.708;9.026;2022-11-30T16:52:45;5.80;99.90
15288;DHT22;7745;48.708;9.026;2022-11-30T16:55:34;6.30;99.90
15288;DHT22;7745;48.708;9.026;2022-11-30T17:01:24;5.80;99.90
15288;DHT22;7745;48.708;9.026;2022-11-30T17:04:20;6.10;99.90
15288;DHT22;7745;48.708;9.026;2022-11-30T17:07:02;5.80;99.90
15288;DHT22;7745;48.708;9.026;2022-11-30T17:09:37;5.80;99.90
15288;DHT22;7745;48.708;9.026;2022-11-30T17:12:17;5.80;99.90
15288;DHT22;7745;48.708;9.026;2022-11-30T17:14:52;5.80;99.90
15288;DHT22;7745;48.708;9.026;2022-11-30T17:17:30;5.70;99.90
15288;DHT22;7745;48.708;9.026;2022-11-30T17:22:59;5.60;99.90
15288;DHT22;7745;48.708;9.026;2022-11-30T17:25:30;5.80;99.90
15288;DHT22;7745;48.708;9.026;2022-11-30T17:28:05;5.70;99.90
15288;DHT22;7745;48.708;9.026;2022-11-30T17:30:34;5.30;99.90
15288;DHT22;7745;48.708;9.026;2022-11-30T17:33:07;5.80;99.90
15288;DHT22;7745;48.708;9.026;2022-11-30T17:35:41;6.00;99.90
15288;DHT22;7745;48.708;9.026;2022-11-30T17:38:12;5.70;99.90
15288;DHT22;7745;48.708;9.026;2022-11-30T17:40:39;5.70;99.90
15288;DHT22;7745;48.708;9.026;2022-11-30T17:43:10;5.70;99.90
15288;DHT22;7745;48.708;9.026;2022-11-30T17:45:38;5.60;99.90
15288;DHT22;7745;48.708;9.026;2022-11-30T17:48:08;6.10;99.90
15288;DHT22;7745;48.708;9.026;2022-11-30T17:50:38;5.70;99.90
15288;DHT22;7745;48.708;9.026;2022-11-30T17:53:05;5.70;99.90
15288;DHT22;7745;48.708;9.026;2022-11-30T17:55:32;6.00;99.90
15288;DHT22;7745;48.708;9.026;2022-11-30T17:57:59;5.70;99.90
15288;DHT22;7745;48.708;9.026;2022-11-30T18:00:26;5.70;99.90
15288;DHT22;7745;48.708;9.026;2022-11-30T18:02:53;5.80;99.90
15288;DHT22;7745;48.708;9.026;2022-11-30T18:05:21;5.80;99.90
15288;DHT22;7745;48.708;9.026;2022-11-30T18:07:56;5.60;99.90
15288;DHT22;7745;48.708;9.026;2022-11-30T18:10:24;5.60;99.90
15288;DHT22;7745;48.708;9.026;2022-11-30T18:12:55;5.70;99.90
15288;DHT22;7745;48.708;9.026;2022-11-30T18:15:24;5.80;99.90
15288;DHT22;7745;48.708;9.026;2022-11-30T18:17:56;5.80;99.90
15288;DHT22;7745;48.708;9.026;2022-11-30T18:20:30;5.80;99.90
15288;DHT22;7745;48.708;9.026;2022-11-30T18:22:59;5.60;99.90
15288;DHT22;7745;48.708;9.026;2022-11-30T18:25:28;5.30;99.90
15288;DHT22;7745;48.708;9.026;2022-11-30T18:27:58;5.90;99.90
15288;DHT22;7745;48.708;9.026;2022-11-30T18:30:25;5.60;99.90
15288;DHT22;7745;48.708;9.026;2022-11-30T18:32:54;5.90;99.90
15288;DHT22;7745;48.708;9.026;2022-11-30T18:35:21;5.70;99.90
15288;DHT22;7745;48.708;9.026;2022-11-30T18:37:49;5.90;99.90
15288;DHT22;7745;48.708;9.026;2022-11-30T18:40:19;5.70;99.90
15288;DHT22;7745;48.708;9.026;2022-11-30T18:42:49;6.10;99.90
15288;DHT22;7745;48.708;9.026;2022-11-30T18:45:20;5.80;99.90
15288;DHT22;7745;48.708;9.026;2022-11-30T18:47:50;5.60;99.90
15288;DHT22;7745;48.708;9.026;2022-11-30T18:50:19;6.00;99.90
15288;DHT22;7745;48.708;9.026;2022-11-30T18:52:46;5.90;99.90
15288;DHT22;7745;48.708;9.026;2022-11-30T18:55:23;6.00;99.90
15288;DHT22;7745;48.708;9.026;2022-11-30T18:57:53;5.70;99.90
15288;DHT22;7745;48.708;9.026;2022-11-30T19:00:20;5.70;99.90
15288;DHT22;7745;48.708;9.026;2022-11-30T19:02:47;5.60;99.90
15288;DHT22;7745;48.708;9.026;2022-11-30T19:05:18;5.90;99.90
15288;DHT22;7745;48.708;9.026;2022-11-30T19:07:57;5.60;99.90
15288;DHT22;7745;48.708;9.026;2022-11-30T19:10:25;5.90;99.90
15288;DHT22;7745;48.708;9.026;2022-11-30T19:12:52;5.50;99.90
15288;DHT22;7745;48.708;9.026;2022-11-30T19:15:19;5.90;99.90
15288;DHT22;7745;48.708;9.026;2022-11-30T19:17:46;5.50;99.90
15288;DHT22;7745;48.708;9.026;2022-11-30T19:20:13;5.70;99.90
15288;DHT22;7745;48.708;9.026;2022-11-30T19:22:40;5.40;99.90
15288;DHT22;7745;48.708;9.026;2022-11-30T19:25:07;5.80;99.90
15288;DHT22;7745;48.708;9.026;2022-11-30T19:27:35;5.30;99.90
15288;DHT22;7745;48.708;9.026;2022-11-30T19:30:03;5.60;99.90
15288;DHT22;7745;48.708;9.026;2022-11-30T19:32:30;5.30;99.90
15288;DHT22;7745;48.708;9.026;2022-11-30T19:34:57;5.30;99.90
15288;DHT22;7745;48.708;9.026;2022-11-30T19:37:24;5.40;99.90
15288;DHT22;7745;48.708;9.026;2022-11-30T19:39:51;5.40;99.90